createdAt,value
2023-05-06T00:00:18.007Z,39.18
2023-05-06T00:01:17.954Z,39.13
2023-05-06T00:02:17.795Z,39.13
2023-05-06T00:03:17.888Z,39.15
2023-05-06T00:04:17.912Z,39.16
2023-05-06T00:05:17.931Z,39.12
2023-05-06T00:06:18.012Z,39.11
2023-05-06T00:07:18.055Z,39.15
2023-05-06T00:08:18.085Z,39.13
2023-05-06T00:09:18.164Z,39.16
2023-05-06T00:10:18.197Z,39.17
2023-05-06T00:11:18.257Z,39.12
2023-05-06T00:12:18.346Z,39.12
2023-05-06T00:13:18.432Z,39.15
2023-05-06T00:14:18.437Z,39.15
2023-05-06T00:15:18.573Z,39.18
2023-05-06T00:16:18.635Z,39.16
2023-05-06T00:17:18.626Z,39.17
2023-05-06T00:18:18.677Z,39.16
2023-05-06T00:19:18.865Z,39.13
2023-05-06T00:20:18.797Z,39.17
2023-05-06T00:21:18.845Z,39.18
2023-05-06T00:22:18.900Z,39.17
2023-05-06T00:23:18.937Z,39.23
2023-05-06T00:24:18.952Z,39.23
2023-05-06T00:25:19.001Z,39.19
2023-05-06T00:26:19.044Z,39.19
2023-05-06T00:27:19.086Z,39.18
2023-05-06T00:28:19.149Z,39.18
2023-05-06T00:29:19.218Z,39.22
2023-05-06T00:30:19.259Z,39.21
2023-05-06T00:31:19.326Z,39.27
2023-05-06T00:32:19.355Z,39.28
2023-05-06T00:33:19.387Z,39.26
2023-05-06T00:34:19.440Z,39.27
2023-05-06T00:35:19.543Z,39.25
2023-05-06T00:36:19.645Z,39.22
2023-05-06T00:37:19.552Z,39.26
2023-05-06T00:38:19.594Z,39.25
2023-05-06T00:39:19.640Z,39.27
2023-05-06T00:40:19.658Z,39.28
2023-05-06T00:41:19.666Z,39.32
2023-05-06T00:42:19.709Z,39.32
2023-05-06T00:43:19.762Z,39.32
2023-05-06T00:44:20.632Z,39.32
2023-05-06T00:45:19.800Z,39.33
2023-05-06T00:46:19.836Z,39.37
2023-05-06T00:47:19.868Z,39.37
2023-05-06T00:48:19.901Z,39.39
2023-05-06T00:49:19.907Z,39.37
2023-05-06T00:50:19.963Z,39.38
2023-05-06T00:51:20.048Z,39.39
2023-05-06T00:52:20.015Z,39.38
2023-05-06T00:53:20.036Z,39.40
2023-05-06T00:54:20.068Z,39.43
2023-05-06T00:55:20.115Z,39.40
2023-05-06T00:56:20.895Z,39.39
2023-05-06T00:57:20.123Z,39.41
2023-05-06T00:58:20.517Z,39.43
2023-05-06T00:59:20.604Z,39.42
2023-05-06T01:00:20.252Z,39.42
2023-05-06T01:01:20.439Z,39.43
2023-05-06T01:02:20.450Z,39.43
2023-05-06T01:03:20.540Z,39.44
2023-05-06T01:04:20.475Z,39.44
2023-05-06T01:05:20.544Z,39.48
2023-05-06T01:06:20.605Z,39.46
2023-05-06T01:07:20.646Z,39.45
2023-05-06T01:08:20.610Z,39.48
2023-05-06T01:09:20.651Z,39.48
2023-05-06T01:10:20.706Z,39.50
2023-05-06T01:11:20.698Z,39.48
2023-05-06T01:12:20.721Z,39.49
2023-05-06T01:13:20.833Z,39.44
2023-05-06T01:14:20.748Z,39.46
2023-05-06T01:15:20.764Z,39.47
2023-05-06T01:16:20.790Z,39.48
2023-05-06T01:17:20.738Z,39.47
2023-05-06T01:18:20.798Z,39.47
2023-05-06T01:19:20.811Z,39.46
2023-05-06T01:20:20.779Z,39.49
2023-05-06T01:21:20.776Z,39.46
2023-05-06T01:22:20.772Z,39.46
2023-05-06T01:23:20.849Z,39.43
2023-05-06T01:24:20.794Z,39.43
2023-05-06T01:25:20.822Z,39.45
2023-05-06T01:26:20.845Z,39.44
2023-05-06T01:27:20.859Z,39.42
2023-05-06T01:28:20.852Z,39.43
2023-05-06T01:29:20.874Z,39.43
2023-05-06T01:30:20.886Z,39.41
2023-05-06T01:31:20.886Z,39.38
2023-05-06T01:32:20.878Z,39.41
2023-05-06T01:33:20.898Z,39.39
2023-05-06T01:34:20.828Z,39.41
2023-05-06T01:35:20.831Z,39.40
2023-05-06T01:36:20.870Z,39.41
2023-05-06T01:37:20.905Z,39.38
2023-05-06T01:38:20.878Z,39.39
2023-05-06T01:39:20.935Z,39.40
2023-05-06T01:40:20.870Z,39.37
2023-05-06T01:41:20.840Z,39.36
2023-05-06T01:42:20.861Z,39.37
2023-05-06T01:43:20.838Z,39.39
2023-05-06T01:44:20.838Z,39.36
2023-05-06T01:45:20.892Z,39.36
2023-05-06T01:46:20.878Z,39.38
2023-05-06T01:47:20.822Z,39.38
2023-05-06T01:48:20.827Z,39.37
2023-05-06T01:49:20.836Z,39.36
2023-05-06T01:50:20.829Z,39.34
2023-05-06T01:51:20.839Z,39.31
2023-05-06T01:52:20.795Z,39.33
2023-05-06T01:53:20.787Z,39.33
2023-05-06T01:54:20.793Z,39.35
2023-05-06T01:55:20.878Z,39.33
2023-05-06T01:56:20.817Z,39.35
2023-05-06T01:57:20.794Z,39.36
2023-05-06T01:58:20.807Z,39.37
2023-05-06T01:59:20.818Z,39.32
2023-05-06T02:00:20.799Z,39.34
2023-05-06T02:01:20.803Z,39.32
2023-05-06T02:02:20.791Z,39.31
2023-05-06T02:03:20.861Z,39.34
2023-05-06T02:04:20.789Z,39.36
2023-05-06T02:05:20.797Z,39.33
2023-05-06T02:06:20.769Z,39.33
2023-05-06T02:07:20.772Z,39.35
2023-05-06T02:08:20.775Z,39.33
2023-05-06T02:09:20.779Z,39.35
2023-05-06T02:10:20.763Z,39.33
2023-05-06T02:11:20.778Z,39.31
2023-05-06T02:12:20.756Z,39.33
2023-05-06T02:13:20.867Z,39.30
2023-05-06T02:14:20.763Z,39.32
2023-05-06T02:15:20.765Z,39.31
2023-05-06T02:16:20.781Z,39.29
2023-05-06T02:17:20.741Z,39.29
2023-05-06T02:18:20.731Z,39.28
2023-05-06T02:19:20.754Z,39.30
2023-05-06T02:20:20.716Z,39.29
2023-05-06T02:21:20.697Z,39.31
2023-05-06T02:22:20.743Z,39.30
2023-05-06T02:23:20.720Z,39.31
2023-05-06T02:24:20.683Z,39.31
2023-05-06T02:25:20.732Z,39.29
2023-05-06T02:26:20.694Z,39.30
2023-05-06T02:27:20.711Z,39.27
2023-05-06T02:28:20.687Z,39.30
2023-05-06T02:29:21.662Z,39.26
2023-05-06T02:30:20.690Z,39.30
2023-05-06T02:31:20.722Z,39.26
2023-05-06T02:32:20.706Z,39.28
2023-05-06T02:33:20.678Z,39.29
2023-05-06T02:34:20.712Z,39.31
2023-05-06T02:35:20.702Z,39.29
2023-05-06T02:36:20.685Z,39.28
2023-05-06T02:37:20.690Z,39.29
2023-05-06T02:38:20.677Z,39.29
2023-05-06T02:39:20.750Z,39.26
2023-05-06T02:40:20.699Z,39.28
2023-05-06T02:41:20.678Z,39.28
2023-05-06T02:42:20.707Z,39.30
2023-05-06T02:43:20.726Z,39.30
2023-05-06T02:44:20.651Z,39.30
2023-05-06T02:45:20.664Z,39.28
2023-05-06T02:46:20.746Z,39.30
2023-05-06T02:47:20.693Z,39.27
2023-05-06T02:48:20.672Z,39.29
2023-05-06T02:49:20.642Z,39.30
2023-05-06T02:50:20.631Z,39.29
2023-05-06T02:51:20.664Z,39.31
2023-05-06T02:52:20.660Z,39.27
2023-05-06T02:53:20.675Z,39.28
2023-05-06T02:54:20.665Z,39.28
2023-05-06T02:55:20.650Z,39.28
2023-05-06T02:56:20.668Z,39.32
2023-05-06T02:57:20.638Z,39.29
2023-05-06T02:58:20.631Z,39.30
2023-05-06T02:59:20.765Z,39.30
2023-05-06T03:00:20.644Z,39.31
2023-05-06T03:01:20.674Z,39.28
2023-05-06T03:02:20.625Z,39.30
2023-05-06T03:03:20.645Z,39.29
2023-05-06T03:04:20.647Z,39.32
2023-05-06T03:05:20.623Z,39.32
2023-05-06T03:06:20.628Z,39.31
2023-05-06T03:07:20.631Z,39.31
2023-05-06T03:08:20.614Z,39.31
2023-05-06T03:09:20.640Z,39.32
2023-05-06T03:10:20.622Z,39.32
2023-05-06T03:11:20.593Z,39.32
2023-05-06T03:12:20.612Z,39.34
2023-05-06T03:13:20.647Z,39.30
2023-05-06T03:14:20.622Z,39.33
2023-05-06T03:15:20.662Z,39.30
2023-05-06T03:16:20.617Z,39.32
2023-05-06T03:17:20.598Z,39.30
2023-05-06T03:18:20.584Z,39.27
2023-05-06T03:19:20.608Z,39.26
2023-05-06T03:20:20.620Z,39.28
2023-05-06T03:21:20.616Z,39.28
2023-05-06T03:22:20.613Z,39.26
2023-05-06T03:23:20.598Z,39.26
2023-05-06T03:24:20.577Z,39.24
2023-05-06T03:25:20.595Z,39.25
2023-05-06T03:26:20.589Z,39.25
2023-05-06T03:27:20.572Z,39.25
2023-05-06T03:28:20.574Z,39.25
2023-05-06T03:29:20.562Z,39.23
2023-05-06T03:30:20.625Z,39.23
2023-05-06T03:31:20.710Z,39.25
2023-05-06T03:32:20.574Z,39.22
2023-05-06T03:33:20.574Z,39.20
2023-05-06T03:34:20.572Z,39.21
2023-05-06T03:35:20.552Z,39.21
2023-05-06T03:36:20.590Z,39.20
2023-05-06T03:37:20.576Z,39.19
2023-05-06T03:38:20.582Z,39.21
2023-05-06T03:39:20.585Z,39.18
2023-05-06T03:40:20.592Z,39.18
2023-05-06T03:41:20.572Z,39.20
2023-05-06T03:42:20.585Z,39.17
2023-05-06T03:43:20.586Z,39.16
2023-05-06T03:44:20.598Z,39.16
2023-05-06T03:45:20.583Z,39.18
2023-05-06T03:46:20.668Z,39.14
2023-05-06T03:47:20.750Z,39.18
2023-05-06T03:48:20.605Z,39.16
2023-05-06T03:49:20.614Z,39.18
2023-05-06T03:50:20.585Z,39.15
2023-05-06T03:51:20.573Z,39.14
2023-05-06T03:52:20.599Z,39.14
2023-05-06T03:53:20.621Z,39.14
2023-05-06T03:54:20.584Z,39.15
2023-05-06T03:55:20.585Z,39.14
2023-05-06T03:56:20.590Z,39.12
2023-05-06T03:57:20.601Z,39.13
2023-05-06T03:58:20.617Z,39.12
2023-05-06T03:59:20.606Z,39.12
2023-05-06T04:00:20.611Z,39.11
2023-05-06T04:01:20.577Z,39.11
2023-05-06T04:02:20.667Z,39.11
2023-05-06T04:03:20.751Z,39.11
2023-05-06T04:04:20.610Z,39.08
2023-05-06T04:05:20.602Z,39.12
2023-05-06T04:06:20.615Z,39.10
2023-05-06T04:07:20.630Z,39.13
2023-05-06T04:08:20.622Z,39.12
2023-05-06T04:09:20.617Z,39.13
2023-05-06T04:10:20.636Z,39.09
2023-05-06T04:11:20.622Z,39.06
2023-05-06T04:12:20.673Z,39.08
2023-05-06T04:13:20.692Z,39.08
2023-05-06T04:14:20.671Z,39.07
2023-05-06T04:15:20.666Z,39.04
2023-05-06T04:16:20.690Z,39.05
2023-05-06T04:17:20.644Z,39.02
2023-05-06T04:18:20.654Z,39.04
2023-05-06T04:19:20.790Z,39.04
2023-05-06T04:20:20.648Z,39.03
2023-05-06T04:21:20.665Z,39.04
2023-05-06T04:22:20.650Z,39.04
2023-05-06T04:23:20.691Z,39.03
2023-05-06T04:24:20.644Z,39.02
2023-05-06T04:25:20.636Z,39.03
2023-05-06T04:26:20.658Z,39.03
2023-05-06T04:27:20.674Z,39.01
2023-05-06T04:28:20.693Z,38.99
2023-05-06T04:29:20.690Z,39.01
2023-05-06T04:30:20.674Z,39.01
2023-05-06T04:31:20.684Z,39.01
2023-05-06T04:32:20.688Z,39.02
2023-05-06T04:33:20.721Z,39.01
2023-05-06T04:34:20.684Z,39.03
2023-05-06T04:35:20.721Z,39.03
2023-05-06T04:36:20.729Z,39.02
2023-05-06T04:37:20.709Z,39.02
2023-05-06T04:38:20.716Z,39.02
2023-05-06T04:39:20.709Z,39.06
2023-05-06T04:40:20.730Z,39.04
2023-05-06T04:41:20.729Z,39.05
2023-05-06T04:42:20.844Z,39.05
2023-05-06T04:43:20.748Z,39.04
2023-05-06T04:44:20.760Z,39.03
2023-05-06T04:45:20.760Z,39.05
2023-05-06T04:46:20.817Z,39.06
2023-05-06T04:47:20.768Z,39.06
2023-05-06T04:48:20.778Z,39.06
2023-05-06T04:49:20.787Z,39.07
2023-05-06T04:50:20.762Z,39.06
2023-05-06T04:51:20.847Z,39.02
2023-05-06T04:52:20.782Z,39.02
2023-05-06T04:53:20.823Z,39.03
2023-05-06T04:54:20.813Z,39.02
2023-05-06T04:55:20.844Z,39.04
2023-05-06T04:56:20.788Z,39.05
2023-05-06T04:57:20.802Z,39.02
2023-05-06T04:58:20.809Z,39.05
2023-05-06T04:59:20.831Z,39.03
2023-05-06T05:00:20.796Z,39.03
2023-05-06T05:01:20.963Z,39.02
2023-05-06T05:02:20.901Z,39.03
2023-05-06T05:03:20.905Z,39.04
2023-05-06T05:04:20.841Z,39.05
2023-05-06T05:05:20.829Z,39.03
2023-05-06T05:06:20.848Z,39.04
2023-05-06T05:07:20.917Z,39.03
2023-05-06T05:08:20.870Z,39.01
2023-05-06T05:09:20.840Z,39.01
2023-05-06T05:10:20.851Z,39.02
2023-05-06T05:11:20.836Z,39.02
2023-05-06T05:12:20.842Z,39.01
2023-05-06T05:13:20.882Z,39.01
2023-05-06T05:14:20.853Z,39.01
2023-05-06T05:15:20.826Z,38.97
2023-05-06T05:16:20.908Z,38.98
2023-05-06T05:17:20.862Z,38.99
2023-05-06T05:18:20.862Z,38.98
2023-05-06T05:19:20.846Z,38.94
2023-05-06T05:20:20.857Z,38.98
2023-05-06T05:21:20.865Z,38.98
2023-05-06T05:22:20.869Z,38.98
2023-05-06T05:23:20.917Z,39.00
2023-05-06T05:24:20.891Z,39.00
2023-05-06T05:25:20.883Z,39.00
2023-05-06T05:26:20.904Z,38.98
2023-05-06T05:27:20.882Z,39.02
2023-05-06T05:28:20.880Z,39.01
2023-05-06T05:29:20.863Z,39.00
2023-05-06T05:30:20.899Z,39.01
2023-05-06T05:31:20.940Z,39.02
2023-05-06T05:32:20.877Z,39.01
2023-05-06T05:33:20.975Z,39.02
2023-05-06T05:34:20.882Z,39.02
2023-05-06T05:35:20.900Z,39.00
2023-05-06T05:36:20.880Z,39.02
2023-05-06T05:37:20.871Z,39.02
2023-05-06T05:38:20.879Z,39.02
2023-05-06T05:39:20.936Z,39.01
2023-05-06T05:40:20.897Z,39.02
2023-05-06T05:41:20.862Z,39.03
2023-05-06T05:42:20.872Z,39.01
2023-05-06T05:43:20.880Z,39.03
2023-05-06T05:44:20.865Z,39.04
2023-05-06T05:45:20.870Z,39.01
2023-05-06T05:46:20.939Z,39.03
2023-05-06T05:47:20.895Z,39.03
2023-05-06T05:48:20.893Z,39.03
2023-05-06T05:49:20.878Z,39.03
2023-05-06T05:50:20.868Z,38.98
2023-05-06T05:51:20.870Z,38.99
2023-05-06T05:52:20.875Z,39.03
2023-05-06T05:53:20.894Z,39.02
2023-05-06T05:54:20.885Z,39.00
2023-05-06T05:55:20.907Z,39.01
2023-05-06T05:56:20.924Z,39.00
2023-05-06T05:57:20.865Z,38.99
2023-05-06T05:58:20.897Z,39.00
2023-05-06T05:59:20.879Z,39.02
2023-05-06T06:00:20.893Z,39.02
2023-05-06T06:01:20.866Z,39.01
2023-05-06T06:02:20.980Z,39.03
2023-05-06T06:03:20.974Z,39.04
2023-05-06T06:04:20.915Z,39.04
2023-05-06T06:05:20.880Z,39.03
2023-05-06T06:06:20.903Z,38.99
2023-05-06T06:07:20.907Z,38.96
2023-05-06T06:08:20.885Z,38.98
2023-05-06T06:09:20.944Z,39.00
2023-05-06T06:10:20.887Z,39.01
2023-05-06T06:11:20.978Z,39.02
2023-05-06T06:12:20.882Z,39.01
2023-05-06T06:13:20.976Z,39.05
2023-05-06T06:14:20.861Z,39.05
2023-05-06T06:15:20.902Z,39.01
2023-05-06T06:16:20.947Z,39.01
2023-05-06T06:17:20.881Z,39.03
2023-05-06T06:18:20.893Z,39.05
2023-05-06T06:19:20.904Z,39.05
2023-05-06T06:20:20.885Z,39.07
2023-05-06T06:21:20.906Z,39.08
2023-05-06T06:22:20.869Z,39.08
2023-05-06T06:23:20.904Z,39.09
2023-05-06T06:24:20.851Z,39.11
2023-05-06T06:25:20.895Z,39.12
2023-05-06T06:26:20.860Z,39.11
2023-05-06T06:27:20.922Z,39.13
2023-05-06T06:28:20.837Z,39.17
2023-05-06T06:29:20.864Z,39.19
2023-05-06T06:30:20.849Z,39.17
2023-05-06T06:31:20.850Z,39.17
2023-05-06T06:32:20.875Z,39.22
2023-05-06T06:33:20.844Z,39.19
2023-05-06T06:34:20.836Z,39.16
2023-05-06T06:35:20.863Z,39.16
2023-05-06T06:36:20.863Z,39.19
2023-05-06T06:37:20.831Z,39.18
2023-05-06T06:38:20.836Z,39.19
2023-05-06T06:39:20.831Z,39.16
2023-05-06T06:40:20.816Z,39.19
2023-05-06T06:41:20.799Z,39.20
2023-05-06T06:42:20.794Z,39.22
2023-05-06T06:43:20.812Z,39.21
2023-05-06T06:44:20.821Z,39.23
2023-05-06T06:45:20.789Z,39.23
2023-05-06T06:46:20.917Z,39.24
2023-05-06T06:47:20.802Z,39.25
2023-05-06T06:48:20.833Z,39.26
2023-05-06T06:49:20.855Z,39.23
2023-05-06T06:50:20.874Z,39.22
2023-05-06T06:51:20.852Z,39.23
2023-05-06T06:52:20.848Z,39.25
2023-05-06T06:53:20.919Z,39.26
2023-05-06T06:54:20.877Z,39.24
2023-05-06T06:55:20.872Z,39.20
2023-05-06T06:56:20.867Z,39.22
2023-05-06T06:57:20.910Z,39.18
2023-05-06T06:58:20.864Z,39.24
2023-05-06T06:59:20.875Z,39.26
2023-05-06T07:00:20.932Z,39.25
2023-05-06T07:01:20.958Z,39.24
2023-05-06T07:02:20.968Z,39.25
2023-05-06T07:03:20.970Z,39.25
2023-05-06T07:04:20.992Z,39.27
2023-05-06T07:05:21.033Z,39.27
2023-05-06T07:06:21.033Z,39.27
2023-05-06T07:07:21.037Z,39.27
2023-05-06T07:08:21.097Z,39.26
2023-05-06T07:09:21.113Z,39.23
2023-05-06T07:10:21.117Z,39.18
2023-05-06T07:11:21.173Z,39.21
2023-05-06T07:12:21.178Z,39.19
2023-05-06T07:13:21.299Z,39.18
2023-05-06T07:14:21.260Z,39.13
2023-05-06T07:15:21.358Z,39.10
2023-05-06T07:16:21.393Z,39.12
2023-05-06T07:17:21.373Z,39.11
2023-05-06T07:18:21.464Z,39.08
2023-05-06T07:19:21.425Z,39.04
2023-05-06T07:20:21.472Z,39.05
2023-05-06T07:21:21.496Z,39.00
2023-05-06T07:22:21.530Z,38.97
2023-05-06T07:23:21.591Z,39.01
2023-05-06T07:24:21.634Z,38.94
2023-05-06T07:25:21.636Z,38.96
2023-05-06T07:26:21.711Z,38.99
2023-05-06T07:27:21.870Z,38.98
2023-05-06T07:28:21.778Z,38.95
2023-05-06T07:29:21.851Z,38.96
2023-05-06T07:30:23.342Z,38.94
2023-05-06T07:31:22.024Z,38.93
2023-05-06T07:32:21.984Z,38.92
2023-05-06T07:33:21.988Z,38.88
2023-05-06T07:34:21.992Z,38.85
2023-05-06T07:35:22.054Z,38.86
2023-05-06T07:36:22.147Z,38.85
2023-05-06T07:37:22.205Z,38.82
2023-05-06T07:38:22.225Z,38.82
2023-05-06T07:39:22.283Z,38.75
2023-05-06T07:40:22.348Z,38.73
2023-05-06T07:41:22.418Z,38.69
2023-05-06T07:42:22.473Z,38.70
2023-05-06T07:43:22.545Z,38.68
2023-05-06T07:44:22.609Z,38.63
2023-05-06T07:45:22.665Z,38.58
2023-05-06T07:46:22.776Z,38.53
2023-05-06T07:47:22.931Z,38.56
2023-05-06T07:48:22.882Z,38.57
2023-05-06T07:49:22.906Z,38.55
2023-05-06T07:50:23.004Z,38.53
2023-05-06T07:51:23.031Z,38.44
2023-05-06T07:52:23.067Z,38.47
2023-05-06T07:53:23.130Z,38.49
2023-05-06T07:54:23.206Z,38.48
2023-05-06T07:55:23.236Z,38.49
2023-05-06T07:56:23.279Z,38.41
2023-05-06T07:57:23.321Z,38.37
2023-05-06T07:58:23.380Z,38.39
2023-05-06T07:59:23.455Z,38.42
2023-05-06T08:00:23.489Z,38.37
2023-05-06T08:01:23.550Z,38.40
2023-05-06T08:02:23.732Z,38.37
2023-05-06T08:03:23.870Z,38.38
2023-05-06T08:04:23.705Z,38.43
2023-05-06T08:05:23.772Z,38.35
2023-05-06T08:06:23.836Z,38.35
2023-05-06T08:07:23.887Z,38.34
2023-05-06T08:08:23.911Z,38.35
2023-05-06T08:09:23.951Z,38.32
2023-05-06T08:10:24.025Z,38.33
2023-05-06T08:11:24.075Z,38.30
2023-05-06T08:12:24.163Z,38.32
2023-05-06T08:13:24.211Z,38.34
2023-05-06T08:14:24.233Z,38.31
2023-05-06T08:15:24.297Z,38.31
2023-05-06T08:16:25.501Z,38.26
2023-05-06T08:17:24.403Z,38.28
2023-05-06T08:18:24.464Z,38.30
2023-05-06T08:19:24.750Z,38.25
2023-05-06T08:20:24.532Z,38.27
2023-05-06T08:21:24.574Z,38.27
2023-05-06T08:22:24.661Z,38.25
2023-05-06T08:23:24.695Z,38.25
2023-05-06T08:24:24.711Z,38.23
2023-05-06T08:25:24.762Z,38.21
2023-05-06T08:26:24.798Z,38.24
2023-05-06T08:27:24.869Z,38.19
2023-05-06T08:28:25.458Z,38.22
2023-05-06T08:29:24.940Z,38.20
2023-05-06T08:30:24.965Z,38.20
2023-05-06T08:31:25.071Z,38.17
2023-05-06T08:32:25.278Z,38.17
2023-05-06T08:33:25.162Z,38.19
2023-05-06T08:34:25.151Z,38.16
2023-05-06T08:35:25.292Z,38.16
2023-05-06T08:36:25.281Z,38.17
2023-05-06T08:37:25.314Z,38.13
2023-05-06T08:38:25.377Z,38.13
2023-05-06T08:39:25.432Z,38.12
2023-05-06T08:40:25.426Z,38.09
2023-05-06T08:41:25.467Z,38.07
2023-05-06T08:42:25.528Z,38.05
2023-05-06T08:43:25.587Z,38.03
2023-05-06T08:44:25.668Z,38.06
2023-05-06T08:45:27.394Z,38.04
2023-05-06T08:46:25.713Z,38.03
2023-05-06T08:47:25.698Z,38.05
2023-05-06T08:48:25.669Z,38.03
2023-05-06T08:49:25.662Z,37.99
2023-05-06T08:50:25.662Z,38.01
2023-05-06T08:51:26.169Z,38.05
2023-05-06T08:52:25.656Z,37.99
2023-05-06T08:53:25.632Z,38.02
2023-05-06T08:54:25.600Z,38.00
2023-05-06T08:55:25.600Z,37.97
2023-05-06T08:56:25.598Z,37.93
2023-05-06T08:57:25.569Z,37.97
2023-05-06T08:58:25.623Z,37.96
2023-05-06T08:59:25.578Z,37.99
2023-05-06T09:00:25.561Z,37.96
2023-05-06T09:01:25.592Z,37.96
2023-05-06T09:02:25.588Z,37.97
2023-05-06T09:03:25.738Z,37.98
2023-05-06T09:04:25.517Z,37.95
2023-05-06T09:05:25.538Z,37.96
2023-05-06T09:06:25.586Z,37.94
2023-05-06T09:07:25.515Z,37.94
2023-05-06T09:08:25.488Z,37.95
2023-05-06T09:09:25.494Z,37.94
2023-05-06T09:10:25.504Z,37.93
2023-05-06T09:11:25.517Z,37.95
2023-05-06T09:12:25.478Z,37.95
2023-05-06T09:13:25.457Z,37.96
2023-05-06T09:14:25.452Z,37.94
2023-05-06T09:15:25.425Z,37.91
2023-05-06T09:16:25.476Z,37.94
2023-05-06T09:17:25.458Z,37.93
2023-05-06T09:18:25.411Z,37.93
2023-05-06T09:19:25.409Z,37.92
2023-05-06T09:20:25.393Z,37.87
2023-05-06T09:21:25.434Z,37.87
2023-05-06T09:22:25.563Z,37.87
2023-05-06T09:23:25.631Z,37.89
2023-05-06T09:24:25.579Z,37.94
2023-05-06T09:25:25.633Z,37.92
2023-05-06T09:26:25.659Z,37.94
2023-05-06T09:27:25.739Z,37.93
2023-05-06T09:28:25.760Z,37.93
2023-05-06T09:29:25.809Z,37.90
2023-05-06T09:30:25.862Z,37.92
2023-05-06T09:31:25.975Z,37.91
2023-05-06T09:32:25.961Z,37.90
2023-05-06T09:33:25.953Z,37.93
2023-05-06T09:34:26.027Z,37.92
2023-05-06T09:35:26.074Z,37.90
2023-05-06T09:36:26.130Z,37.93
2023-05-06T09:37:26.150Z,37.93
2023-05-06T09:38:26.342Z,37.93
2023-05-06T09:39:26.210Z,37.95
2023-05-06T09:40:26.255Z,37.94
2023-05-06T09:41:26.332Z,37.91
2023-05-06T09:42:26.366Z,37.92
2023-05-06T09:43:26.405Z,37.95
2023-05-06T09:44:26.476Z,37.98
2023-05-06T09:45:26.489Z,37.99
2023-05-06T09:46:26.533Z,37.97
2023-05-06T09:47:26.677Z,37.97
2023-05-06T09:48:26.628Z,38.00
2023-05-06T09:49:26.690Z,38.00
2023-05-06T09:50:26.720Z,37.99
2023-05-06T09:51:26.766Z,38.02
2023-05-06T09:52:26.799Z,38.01
2023-05-06T09:53:26.854Z,38.00
2023-05-06T09:54:26.925Z,38.01
2023-05-06T09:55:27.247Z,38.02
2023-05-06T09:56:26.989Z,38.15
2023-05-06T09:57:27.080Z,38.10
2023-05-06T09:58:27.095Z,38.04
2023-05-06T09:59:27.179Z,38.03
2023-05-06T10:00:27.226Z,38.05
2023-05-06T10:01:36.052Z,38.09
2023-05-06T10:02:28.391Z,38.09
2023-05-06T10:03:27.337Z,38.10
2023-05-06T10:04:27.309Z,38.09
2023-05-06T10:05:27.248Z,38.09
2023-05-06T10:06:27.213Z,38.11
2023-05-06T10:07:27.213Z,38.13
2023-05-06T10:08:27.209Z,38.13
2023-05-06T10:09:27.204Z,38.12
2023-05-06T10:10:27.177Z,38.11
2023-05-06T10:11:27.179Z,38.15
2023-05-06T10:12:27.172Z,38.15
2023-05-06T10:13:27.247Z,38.17
2023-05-06T10:14:27.254Z,38.19
2023-05-06T10:15:27.316Z,38.19
2023-05-06T10:16:27.432Z,38.20
2023-05-06T10:17:27.441Z,38.21
2023-05-06T10:18:27.464Z,38.19
2023-05-06T10:19:27.501Z,38.20
2023-05-06T10:20:27.541Z,38.20
2023-05-06T10:21:27.579Z,38.23
2023-05-06T10:22:27.649Z,38.19
2023-05-06T10:23:27.691Z,38.27
2023-05-06T10:24:27.721Z,38.27
2023-05-06T10:25:27.795Z,38.27
2023-05-06T10:26:27.816Z,38.25
2023-05-06T10:27:27.858Z,38.27
2023-05-06T10:28:30.969Z,38.28
2023-05-06T10:29:27.911Z,38.21
2023-05-06T10:30:27.912Z,38.19
2023-05-06T10:31:27.927Z,38.23
2023-05-06T10:32:27.880Z,38.29
2023-05-06T10:33:28.388Z,38.29
2023-05-06T10:34:27.860Z,38.35
2023-05-06T10:35:27.844Z,38.36
2023-05-06T10:36:27.842Z,38.37
2023-05-06T10:37:27.851Z,38.39
2023-05-06T10:38:27.828Z,38.39
2023-05-06T10:39:27.797Z,38.37
2023-05-06T10:40:27.824Z,38.36
2023-05-06T10:41:27.915Z,38.37
2023-05-06T10:42:27.808Z,38.35
2023-05-06T10:43:27.900Z,38.35
2023-05-06T10:44:27.787Z,38.33
2023-05-06T10:45:27.783Z,38.32
2023-05-06T10:46:27.805Z,38.31
2023-05-06T10:47:27.831Z,38.32
2023-05-06T10:48:27.761Z,38.31
2023-05-06T10:49:27.796Z,38.33
2023-05-06T10:50:27.771Z,38.38
2023-05-06T10:51:27.720Z,38.38
2023-05-06T10:52:27.714Z,38.36
2023-05-06T10:53:27.685Z,38.37
2023-05-06T10:54:27.693Z,38.36
2023-05-06T10:55:27.700Z,38.34
2023-05-06T10:56:27.724Z,38.32
2023-05-06T10:57:27.684Z,38.32
2023-05-06T10:58:27.648Z,38.33
2023-05-06T10:59:27.650Z,38.35
2023-05-06T11:00:27.641Z,38.33
2023-05-06T11:01:27.694Z,38.30
2023-05-06T11:02:27.650Z,38.29
2023-05-06T11:03:27.850Z,38.26
2023-05-06T11:04:27.638Z,38.30
2023-05-06T11:05:27.626Z,38.28
2023-05-06T11:06:27.606Z,38.27
2023-05-06T11:07:27.617Z,38.31
2023-05-06T11:08:27.684Z,38.30
2023-05-06T11:09:27.727Z,38.30
2023-05-06T11:10:27.753Z,38.29
2023-05-06T11:11:27.788Z,38.27
2023-05-06T11:12:27.834Z,38.26
2023-05-06T11:13:28.155Z,38.27
2023-05-06T11:14:27.908Z,38.22
2023-05-06T11:15:28.082Z,38.27
2023-05-06T11:16:28.033Z,38.24
2023-05-06T11:17:28.128Z,38.25
2023-05-06T11:18:28.106Z,38.27
2023-05-06T11:19:28.129Z,38.28
2023-05-06T11:20:28.166Z,38.25
2023-05-06T11:21:28.180Z,38.25
2023-05-06T11:22:28.237Z,38.23
2023-05-06T11:23:28.260Z,38.24
2023-05-06T11:24:28.339Z,38.21
2023-05-06T11:25:28.352Z,38.23
2023-05-06T11:26:28.430Z,38.20
2023-05-06T11:27:28.426Z,38.20
2023-05-06T11:28:28.467Z,38.19
2023-05-06T11:29:28.508Z,38.19
2023-05-06T11:30:28.555Z,38.20
2023-05-06T11:31:28.775Z,38.18
2023-05-06T11:32:28.636Z,38.21
2023-05-06T11:33:28.675Z,38.20
2023-05-06T11:34:28.738Z,38.18
2023-05-06T11:35:28.757Z,38.20
2023-05-06T11:36:28.790Z,38.16
2023-05-06T11:37:28.919Z,38.16
2023-05-06T11:38:28.895Z,38.16
2023-05-06T11:39:28.937Z,38.15
2023-05-06T11:40:28.930Z,38.13
2023-05-06T11:41:28.996Z,38.14
2023-05-06T11:42:29.072Z,38.12
2023-05-06T11:43:29.044Z,38.12
2023-05-06T11:44:29.100Z,38.12
2023-05-06T11:45:29.147Z,38.10
2023-05-06T11:46:29.244Z,38.10
2023-05-06T11:47:29.302Z,38.10
2023-05-06T11:48:29.264Z,38.10
2023-05-06T11:49:29.262Z,38.10
2023-05-06T11:50:29.297Z,38.06
2023-05-06T11:51:29.372Z,38.08
2023-05-06T11:52:29.380Z,38.06
2023-05-06T11:53:29.416Z,38.07
2023-05-06T11:54:29.398Z,38.07
2023-05-06T11:55:29.449Z,38.08
2023-05-06T11:56:29.466Z,38.08
2023-05-06T11:57:29.508Z,38.07
2023-05-06T11:58:29.538Z,38.05
2023-05-06T11:59:29.620Z,38.06
2023-05-06T12:00:29.644Z,38.03
2023-05-06T12:01:29.655Z,38.04
2023-05-06T12:02:29.758Z,38.06
2023-05-06T12:03:29.909Z,38.05
2023-05-06T12:04:29.743Z,37.99
2023-05-06T12:05:29.752Z,38.00
2023-05-06T12:06:29.788Z,38.01
2023-05-06T12:07:29.822Z,38.01
2023-05-06T12:08:29.840Z,38.00
2023-05-06T12:09:29.905Z,38.03
2023-05-06T12:10:29.921Z,38.00
2023-05-06T12:11:29.928Z,38.04
2023-05-06T12:12:29.937Z,38.04
2023-05-06T12:13:29.986Z,37.99
2023-05-06T12:14:30.030Z,37.99
2023-05-06T12:15:30.066Z,37.97
2023-05-06T12:16:30.139Z,38.00
2023-05-06T12:17:30.187Z,38.00
2023-05-06T12:18:30.111Z,37.97
2023-05-06T12:19:30.177Z,37.98
2023-05-06T12:20:30.180Z,38.00
2023-05-06T12:21:30.204Z,37.96
2023-05-06T12:22:30.228Z,37.99
2023-05-06T12:23:30.276Z,37.96
2023-05-06T12:24:30.242Z,37.96
2023-05-06T12:25:30.274Z,37.92
2023-05-06T12:26:30.314Z,37.91
2023-05-06T12:27:30.364Z,37.94
2023-05-06T12:28:30.349Z,37.92
2023-05-06T12:29:30.395Z,37.92
2023-05-06T12:30:30.430Z,37.92
2023-05-06T12:31:30.476Z,37.92
2023-05-06T12:32:30.471Z,37.92
2023-05-06T12:33:30.453Z,37.94
2023-05-06T12:34:30.523Z,37.94
2023-05-06T12:35:30.518Z,37.95
2023-05-06T12:36:30.543Z,37.92
2023-05-06T12:37:30.599Z,37.88
2023-05-06T12:38:30.592Z,37.85
2023-05-06T12:39:30.606Z,37.83
2023-05-06T12:40:30.636Z,37.83
2023-05-06T12:41:30.679Z,37.82
2023-05-06T12:42:30.701Z,37.83
2023-05-06T12:43:30.759Z,37.81
2023-05-06T12:44:30.746Z,37.75
2023-05-06T12:45:30.851Z,37.78
2023-05-06T12:46:30.840Z,37.81
2023-05-06T12:47:30.836Z,37.82
2023-05-06T12:48:30.867Z,37.83
2023-05-06T12:49:30.857Z,37.80
2023-05-06T12:50:30.892Z,37.77
2023-05-06T12:51:31.122Z,37.76
2023-05-06T12:52:30.921Z,37.75